Aeroporto :
LOGIN :

Iscrizione | Disclaimer

   EN    FR    IT 

 










Sommario :    VFR   VFR Marginale   IFR   IFR Intensivo   IFR Molto Intensivo
Visibilità : 
Base nubi : 
>= 8 km
>= 3000ft
5 / 8 km
1000 / 3000 ft
1500m / 5 km
500 / 1000 ft
800 / 1500m
200 / 500 ft
< 800m
< 200 ft
Simboli :   Temporali  Nebbia  Neve Forte  Precipitazioni Forti  Vento > 20 kt
SIGMETs :   Varie  Temporali  Ghiacco  Turbolenza  Onda orograficha  Ceneri Vulcaniche






- Altitudine del aeroporto : 36 ft
- Codice IATA : LTQ


LFAT - Le Touquet

ULTIMO METAR :
  • 090930Z AUTO 33025KT 9999 FEW024 BKN032 OVC039 09/05 Q1004 TEMPO 32025G45KT 4000 SHRA SCT011 BKN025CB

METARs OBSOLETI :
  • 090900Z AUTO 33025KT 9999 BKN025 BKN031 OVC040 09/06 Q1002 TEMPO 32025G45KT 4000 SHRA SCT011 BKN025CB
  • 090830Z AUTO 33023KT 9999 BKN024 BKN034 BKN045 09/06 Q1001 TEMPO 32025G45KT 4000 SHRA SCT011 BKN025CB
  • 090800Z AUTO 32025KT 9999 -RA BKN020 OVC033 09/06 Q1000 TEMPO 29025G45KT 3000 SHRA SCT011 BKN025CB
  • 090730Z AUTO 31021KT 9999 -RA BKN019 BKN025 BKN033 09/06 Q0998 TEMPO 29025G45KT 3000 SHRA SCT011 BKN025CB
  • 090700Z AUTO 31018G29KT 9999 -RA BKN020/// BKN027/// OVC036/// ///TCU 09/07 Q0997 TEMPO 29025G45KT 3000 SHRA SCT011 BKN025CB

TAF TAF LFAT
Valido dal 09 a 09 ore il 09 a 18 ore UTC


090800Z 0909/0918 32020G35KT 9999 BKN025
TEMPO 0909/0912 32025G45KT 4000 SHRA SCT011 BKN025CB
ATIS : +33 3 21 06 62 84



MetMap, La meteo Aeronautica in un colpo d'occhio ! - Copyright ORBIFLY Dicembre 2007 - Disclaimer

ORBIFLY MET'MAP TEAM :

Programmazione e sviluppo : Alexandra Zaïnal
Concezione : Baudouin d'Aumeries
Aiuto per la programmazione : Marc-Olivier Méhu
Supporto tecnico e logistico : Manuel Goepfert
Aiuto per la traduzione : Arnaldo La Scala

Contatto : metmap@orbifly.com




FONTI E CREDITI :

   NOAA